createdAt,value
2022-08-26T00:01:03.309Z,44.14
2022-08-26T00:03:32.443Z,44.00
2022-08-26T00:06:01.759Z,44.11
2022-08-26T00:08:30.873Z,44.25
2022-08-26T00:11:00.026Z,44.35
2022-08-26T00:13:28.578Z,44.34
2022-08-26T00:15:57.775Z,44.49
2022-08-26T00:18:26.638Z,44.73
2022-08-26T00:20:55.860Z,44.74
2022-08-26T00:23:24.382Z,45.30
2022-08-26T00:25:53.585Z,45.17
2022-08-26T00:28:22.879Z,45.38
2022-08-26T00:30:52.354Z,45.34
2022-08-26T00:33:21.558Z,45.61
2022-08-26T00:35:51.557Z,45.43
2022-08-26T00:38:20.444Z,45.84
2022-08-26T00:40:52.403Z,46.11
2022-08-26T00:43:21.289Z,46.26
2022-08-26T00:45:59.171Z,46.00
2022-08-26T00:48:31.767Z,46.60
2022-08-26T00:51:06.328Z,46.29
2022-08-26T00:53:41.478Z,46.81
2022-08-26T00:56:34.394Z,47.07
2022-08-26T00:59:07.818Z,47.22
2022-08-26T01:01:39.065Z,47.56
2022-08-26T01:04:12.330Z,47.71
2022-08-26T01:06:41.304Z,47.71
2022-08-26T01:09:16.263Z,48.25
2022-08-26T01:11:45.199Z,48.52
2022-08-26T01:14:15.588Z,48.71
2022-08-26T01:16:44.228Z,48.79
2022-08-26T01:19:46.074Z,48.87
2022-08-26T01:23:03.767Z,49.26
2022-08-26T01:25:34.695Z,49.24
2022-08-26T01:28:06.829Z,49.20
2022-08-26T01:30:38.100Z,49.28
2022-08-26T01:33:09.414Z,49.58
2022-08-26T01:35:38.778Z,49.78
2022-08-26T01:38:07.574Z,50.12
2022-08-26T01:40:39.863Z,50.54
2022-08-26T01:43:09.532Z,50.74
2022-08-26T01:45:41.368Z,51.12
2022-08-26T01:48:16.184Z,51.37
2022-08-26T01:50:45.576Z,51.53
2022-08-26T01:53:18.361Z,51.75
2022-08-26T01:55:54.198Z,51.58
2022-08-26T01:58:29.228Z,51.90
2022-08-26T02:00:57.962Z,52.04
2022-08-26T02:03:29.386Z,52.10
2022-08-26T02:06:05.548Z,52.30
2022-08-26T02:08:46.009Z,53.18
2022-08-26T02:11:15.903Z,52.94
2022-08-26T02:13:50.827Z,52.84
2022-08-26T02:16:23.295Z,53.76
2022-08-26T02:18:53.924Z,53.64
2022-08-26T02:21:22.343Z,53.92
2022-08-26T02:23:56.096Z,53.75
2022-08-26T02:26:27.018Z,54.90
2022-08-26T02:29:07.813Z,55.31
2022-08-26T02:31:36.381Z,55.37
2022-08-26T02:34:16.630Z,55.71
2022-08-26T02:36:44.934Z,56.02
2022-08-26T02:39:15.044Z,57.10
2022-08-26T02:41:47.910Z,56.71
2022-08-26T02:44:16.395Z,56.92
2022-08-26T02:46:47.178Z,57.11
2022-08-26T02:49:17.705Z,57.05
2022-08-26T02:51:46.140Z,56.94
2022-08-26T02:54:14.989Z,57.44
2022-08-26T02:56:43.851Z,57.64
2022-08-26T02:59:13.592Z,57.59
2022-08-26T03:01:42.699Z,58.69
2022-08-26T03:04:13.393Z,57.85
2022-08-26T03:06:43.718Z,57.84
2022-08-26T03:09:20.928Z,58.12
2022-08-26T03:11:49.259Z,58.36
2022-08-26T03:14:17.620Z,58.52
2022-08-26T03:16:48.480Z,58.87
2022-08-26T03:19:17.496Z,58.99
2022-08-26T03:21:47.315Z,58.98
2022-08-26T03:24:16.423Z,59.31
2022-08-26T03:26:52.166Z,59.16
2022-08-26T03:29:41.093Z,59.83
2022-08-26T03:32:09.882Z,60.18
2022-08-26T03:34:39.143Z,59.98
2022-08-26T03:37:07.787Z,59.86
2022-08-26T03:39:36.803Z,60.31
2022-08-26T03:42:06.038Z,60.59
2022-08-26T03:44:34.580Z,60.31
2022-08-26T03:47:03.303Z,60.91
2022-08-26T03:49:35.774Z,60.91
2022-08-26T03:52:08.178Z,61.00
2022-08-26T03:54:36.748Z,61.14
2022-08-26T03:57:05.174Z,61.34
2022-08-26T03:59:34.258Z,61.77
2022-08-26T04:02:02.889Z,61.97
2022-08-26T04:04:36.878Z,62.46
2022-08-26T04:07:05.282Z,62.09
2022-08-26T04:09:35.128Z,62.11
2022-08-26T04:12:04.697Z,61.79
2022-08-26T04:14:33.368Z,61.76
2022-08-26T04:17:01.707Z,61.61
2022-08-26T04:19:29.963Z,61.74
2022-08-26T04:21:58.498Z,61.95
2022-08-26T04:24:28.371Z,62.10
2022-08-26T04:26:57.473Z,62.19
2022-08-26T04:29:27.747Z,62.33
2022-08-26T04:31:57.443Z,62.44
2022-08-26T04:34:28.727Z,62.16
2022-08-26T04:36:58.822Z,62.21
2022-08-26T04:39:27.934Z,61.92
2022-08-26T04:41:57.779Z,62.66
2022-08-26T04:44:29.395Z,62.38
2022-08-26T04:46:58.328Z,62.98
2022-08-26T04:49:27.833Z,62.41
2022-08-26T04:51:56.219Z,62.76
2022-08-26T04:54:25.105Z,62.70
2022-08-26T04:56:53.742Z,62.78
2022-08-26T04:59:21.967Z,62.78
2022-08-26T05:01:53.812Z,62.66
2022-08-26T05:04:22.920Z,62.81
2022-08-26T05:06:51.885Z,62.92
2022-08-26T05:09:20.988Z,62.59
2022-08-26T05:11:51.910Z,62.75
2022-08-26T05:14:22.406Z,62.77
2022-08-26T05:16:51.307Z,62.73
2022-08-26T05:19:21.148Z,62.76
2022-08-26T05:21:50.417Z,62.77
2022-08-26T05:24:19.223Z,62.92
2022-08-26T05:26:48.269Z,63.01
2022-08-26T05:29:17.437Z,62.85
2022-08-26T05:31:46.348Z,62.95
2022-08-26T05:34:16.107Z,63.33
2022-08-26T05:36:44.493Z,63.26
2022-08-26T05:39:12.819Z,63.34
2022-08-26T05:41:44.747Z,63.00
2022-08-26T05:44:17.223Z,63.39
2022-08-26T05:46:46.371Z,63.08
2022-08-26T05:49:16.759Z,63.16
2022-08-26T05:51:47.664Z,63.16
2022-08-26T05:54:21.889Z,63.07
2022-08-26T05:56:52.345Z,63.34
2022-08-26T05:59:24.544Z,63.54
2022-08-26T06:01:54.639Z,63.18
2022-08-26T06:04:24.782Z,63.39
2022-08-26T06:06:55.525Z,63.14
2022-08-26T06:09:24.181Z,63.25
2022-08-26T06:11:52.798Z,63.29
2022-08-26T06:14:22.099Z,63.30
2022-08-26T06:16:50.742Z,63.22
2022-08-26T06:19:19.128Z,63.09
2022-08-26T06:21:51.282Z,63.26
2022-08-26T06:24:41.290Z,63.37
2022-08-26T06:27:15.328Z,63.39
2022-08-26T06:29:43.943Z,63.22
2022-08-26T06:32:12.963Z,63.28
2022-08-26T06:34:41.383Z,63.20
2022-08-26T06:37:10.578Z,63.45
2022-08-26T06:39:41.141Z,63.27
2022-08-26T06:42:11.817Z,63.34
2022-08-26T06:44:40.922Z,63.25
2022-08-26T06:47:09.618Z,63.32
2022-08-26T06:49:38.144Z,63.34
2022-08-26T06:52:08.177Z,63.20
2022-08-26T06:54:38.830Z,63.46
2022-08-26T06:57:07.538Z,63.35
2022-08-26T06:59:36.019Z,63.42
2022-08-26T07:02:07.291Z,63.31
2022-08-26T07:04:36.644Z,63.34
2022-08-26T07:07:05.243Z,63.67
2022-08-26T07:09:34.258Z,63.46
2022-08-26T07:12:04.488Z,63.36
2022-08-26T07:14:33.144Z,63.47
2022-08-26T07:17:03.622Z,63.34
2022-08-26T07:19:32.055Z,63.42
2022-08-26T07:22:06.097Z,63.43
2022-08-26T07:24:36.955Z,63.58
2022-08-26T07:27:08.878Z,63.52
2022-08-26T07:29:40.337Z,63.43
2022-08-26T07:32:09.603Z,63.65
2022-08-26T07:34:41.982Z,63.76
2022-08-26T07:37:10.899Z,63.68
2022-08-26T07:39:40.400Z,63.89
2022-08-26T07:42:10.903Z,63.42
2022-08-26T07:44:40.817Z,63.43
2022-08-26T07:47:26.117Z,63.52
2022-08-26T07:49:57.654Z,63.63
2022-08-26T07:52:28.273Z,63.83
2022-08-26T07:54:59.463Z,63.63
2022-08-26T07:57:29.938Z,63.78
2022-08-26T07:59:58.739Z,63.73
2022-08-26T08:02:29.138Z,63.80
2022-08-26T08:04:58.951Z,64.00
2022-08-26T08:07:38.620Z,64.20
2022-08-26T08:10:25.169Z,63.95
2022-08-26T08:12:55.057Z,63.93
2022-08-26T08:15:28.658Z,64.09
2022-08-26T08:18:00.601Z,64.16
2022-08-26T08:20:29.598Z,64.22
2022-08-26T08:22:58.743Z,63.99
2022-08-26T08:25:27.179Z,64.10
2022-08-26T08:27:55.407Z,64.16
2022-08-26T08:30:25.938Z,64.00
2022-08-26T08:32:54.387Z,64.14
2022-08-26T08:35:24.609Z,64.07
2022-08-26T08:37:56.497Z,63.88
2022-08-26T08:40:27.731Z,64.02
2022-08-26T08:43:07.354Z,64.02
2022-08-26T08:45:43.993Z,63.89
2022-08-26T08:48:32.668Z,64.08
2022-08-26T08:51:22.257Z,64.19
2022-08-26T08:53:54.993Z,64.03
2022-08-26T08:56:34.634Z,64.05
2022-08-26T08:59:09.137Z,63.99
2022-08-26T09:01:52.254Z,64.27
2022-08-26T09:04:58.738Z,64.11
2022-08-26T09:07:36.583Z,64.13
2022-08-26T09:10:44.986Z,64.25
2022-08-26T09:13:25.212Z,64.04
2022-08-26T09:16:15.239Z,63.98
2022-08-26T09:19:27.468Z,64.30
2022-08-26T09:22:02.242Z,64.17
2022-08-26T09:24:48.435Z,63.99
2022-08-26T09:27:41.152Z,64.13
2022-08-26T09:30:12.268Z,63.95
2022-08-26T09:32:42.353Z,64.30
2022-08-26T09:35:27.700Z,64.41
2022-08-26T09:37:56.979Z,64.29
2022-08-26T09:40:40.178Z,64.57
2022-08-26T09:43:22.445Z,64.45
2022-08-26T09:45:59.760Z,64.50
2022-08-26T09:48:37.458Z,64.45
2022-08-26T09:51:33.137Z,64.35
2022-08-26T09:54:03.948Z,64.66
2022-08-26T09:56:40.978Z,64.48
2022-08-26T09:59:13.142Z,64.63
2022-08-26T10:01:44.794Z,64.53
2022-08-26T10:04:21.578Z,64.47
2022-08-26T10:06:58.578Z,64.44
2022-08-26T10:09:28.159Z,64.39
2022-08-26T10:12:03.697Z,64.37
2022-08-26T10:15:00.352Z,64.70
2022-08-26T10:18:05.071Z,64.31
2022-08-26T10:20:56.968Z,64.34
2022-08-26T10:23:30.121Z,64.43
2022-08-26T10:26:10.788Z,64.35
2022-08-26T10:28:40.661Z,64.16
2022-08-26T10:31:40.139Z,64.44
2022-08-26T10:34:09.539Z,64.60
2022-08-26T10:39:59.243Z,64.52
2022-08-26T10:42:28.855Z,64.74
2022-08-26T10:45:04.132Z,64.88
2022-08-26T10:47:40.268Z,64.86
2022-08-26T10:50:09.458Z,65.01
2022-08-26T10:52:59.698Z,65.06
2022-08-26T10:55:34.922Z,64.80
2022-08-26T10:58:09.429Z,64.74
2022-08-26T11:01:10.460Z,64.77
2022-08-26T11:04:05.519Z,64.71
2022-08-26T11:06:34.393Z,64.80
2022-08-26T11:09:08.508Z,64.93
2022-08-26T11:11:42.863Z,64.97
2022-08-26T11:14:28.687Z,64.99
2022-08-26T11:16:59.628Z,64.82
2022-08-26T11:19:59.471Z,64.92
2022-08-26T11:22:37.077Z,64.96
2022-08-26T11:25:13.423Z,64.82
2022-08-26T11:27:42.578Z,64.80
2022-08-26T11:30:14.087Z,65.05
2022-08-26T11:32:42.418Z,65.06
2022-08-26T11:35:30.543Z,65.11
2022-08-26T11:38:26.375Z,64.97
2022-08-26T11:41:12.489Z,65.16
2022-08-26T11:43:41.938Z,65.06
2022-08-26T11:46:12.930Z,65.26
2022-08-26T11:48:44.294Z,65.11
2022-08-26T11:51:24.818Z,65.20
2022-08-26T11:54:08.978Z,64.90
2022-08-26T11:56:40.587Z,65.15
2022-08-26T11:59:12.258Z,65.59
2022-08-26T12:01:45.938Z,65.25
2022-08-26T12:04:34.335Z,65.57
2022-08-26T12:07:03.931Z,65.70
2022-08-26T12:09:51.543Z,65.47
2022-08-26T12:12:31.741Z,65.33
2022-08-26T12:15:23.653Z,65.55
2022-08-26T12:17:54.544Z,65.44
2022-08-26T12:20:47.538Z,65.64
2022-08-26T12:23:26.213Z,65.52
2022-08-26T12:26:05.230Z,65.49
2022-08-26T12:28:34.905Z,65.58
2022-08-26T12:31:06.737Z,65.71
2022-08-26T12:33:39.378Z,65.80
2022-08-26T12:36:07.988Z,65.67
2022-08-26T12:38:39.924Z,65.50
2022-08-26T12:41:08.498Z,65.71
2022-08-26T12:43:41.458Z,65.49
2022-08-26T12:46:17.414Z,65.64
2022-08-26T12:48:50.263Z,65.83
2022-08-26T12:51:31.218Z,65.66
2022-08-26T12:54:00.502Z,65.93
2022-08-26T12:56:42.258Z,65.75
2022-08-26T12:59:25.462Z,65.77
2022-08-26T13:01:55.253Z,65.79
2022-08-26T13:04:40.918Z,65.66
2022-08-26T13:07:27.698Z,65.49
2022-08-26T13:09:58.415Z,65.61
2022-08-26T13:12:41.913Z,65.49
2022-08-26T13:15:10.554Z,65.65
2022-08-26T13:17:40.110Z,65.87
2022-08-26T13:20:09.092Z,66.04
2022-08-26T13:22:37.608Z,66.00
2022-08-26T13:25:06.397Z,65.60
2022-08-26T13:27:34.854Z,65.99
2022-08-26T13:30:03.885Z,65.81
2022-08-26T13:32:32.679Z,65.90
2022-08-26T13:35:05.832Z,65.46
2022-08-26T13:37:35.621Z,65.63
2022-08-26T13:40:08.091Z,65.65
2022-08-26T13:42:36.593Z,65.89
2022-08-26T13:45:05.743Z,65.57
2022-08-26T13:47:34.418Z,65.67
2022-08-26T13:50:03.143Z,65.79
2022-08-26T13:52:31.488Z,65.79
2022-08-26T13:55:01.613Z,65.81
2022-08-26T13:57:31.182Z,65.82
2022-08-26T14:00:00.255Z,65.94
2022-08-26T14:02:29.618Z,66.06
2022-08-26T14:04:57.940Z,65.96
2022-08-26T14:07:27.463Z,66.21
2022-08-26T14:09:56.018Z,66.22
2022-08-26T14:12:24.433Z,66.01
2022-08-26T14:14:52.819Z,66.04
2022-08-26T14:17:23.787Z,66.02
2022-08-26T14:19:52.985Z,65.92
2022-08-26T14:22:23.468Z,65.86
2022-08-26T14:24:52.500Z,66.15
2022-08-26T14:27:22.083Z,66.06
2022-08-26T14:29:50.583Z,66.02
2022-08-26T14:32:29.568Z,65.83
2022-08-26T14:35:00.014Z,65.96
2022-08-26T14:37:29.918Z,66.02
2022-08-26T14:39:58.769Z,66.23
2022-08-26T14:42:31.806Z,65.90
2022-08-26T14:45:03.479Z,65.81
2022-08-26T14:47:31.853Z,65.93
2022-08-26T14:50:00.273Z,66.19
2022-08-26T14:52:28.819Z,66.14
2022-08-26T14:54:57.291Z,65.98
2022-08-26T14:57:25.528Z,65.90
2022-08-26T14:59:53.988Z,66.29
2022-08-26T15:02:32.821Z,65.89
2022-08-26T15:05:03.471Z,66.00
2022-08-26T15:07:32.393Z,65.61
2022-08-26T15:10:00.724Z,65.96
2022-08-26T15:12:29.023Z,66.10
2022-08-26T15:14:57.338Z,65.95
2022-08-26T15:17:25.978Z,66.17
2022-08-26T15:19:54.319Z,66.00
2022-08-26T15:22:22.638Z,65.97
2022-08-26T15:24:53.569Z,65.84
2022-08-26T15:27:22.235Z,65.80
2022-08-26T15:29:50.743Z,65.79
2022-08-26T15:32:19.219Z,65.73
2022-08-26T15:34:47.533Z,65.44
2022-08-26T15:37:15.946Z,65.19
2022-08-26T15:39:45.093Z,65.36
2022-08-26T15:42:13.388Z,65.23
2022-08-26T15:44:46.253Z,65.13
2022-08-26T15:47:14.713Z,65.02
2022-08-26T15:49:43.148Z,64.84
2022-08-26T15:52:11.538Z,64.61
2022-08-26T15:54:40.939Z,64.24
2022-08-26T15:57:11.513Z,64.19
2022-08-26T15:59:40.843Z,64.30
2022-08-26T16:02:09.969Z,64.40
2022-08-26T16:04:38.692Z,64.11
2022-08-26T16:07:07.309Z,63.91
2022-08-26T16:09:35.863Z,63.83
2022-08-26T16:12:05.163Z,63.84
2022-08-26T16:14:33.458Z,64.02
2022-08-26T16:17:01.797Z,64.02
2022-08-26T16:19:30.258Z,63.90
2022-08-26T16:21:58.743Z,63.57
2022-08-26T16:24:30.350Z,63.55
2022-08-26T16:26:59.378Z,63.43
2022-08-26T16:29:28.003Z,63.29
2022-08-26T16:31:56.344Z,63.26
2022-08-26T16:34:25.228Z,63.08
2022-08-26T16:36:54.041Z,62.92
2022-08-26T16:39:22.418Z,62.86
2022-08-26T16:41:50.692Z,62.73
2022-08-26T16:44:19.539Z,62.29
2022-08-26T16:46:48.097Z,62.22
2022-08-26T16:49:16.923Z,62.07
2022-08-26T16:51:45.458Z,61.95
2022-08-26T16:54:13.938Z,61.84
2022-08-26T16:56:42.348Z,61.52
2022-08-26T16:59:12.303Z,61.55
2022-08-26T17:01:41.190Z,61.62
2022-08-26T17:04:09.623Z,61.34
2022-08-26T17:06:38.093Z,61.01
2022-08-26T17:09:06.999Z,60.88
2022-08-26T17:11:36.188Z,60.48
2022-08-26T17:14:05.019Z,60.71
2022-08-26T17:16:34.060Z,60.58
2022-08-26T17:19:03.268Z,60.25
2022-08-26T17:21:33.163Z,60.17
2022-08-26T17:24:01.478Z,60.18
2022-08-26T17:26:30.178Z,59.82
2022-08-26T17:28:59.268Z,59.33
2022-08-26T17:31:27.899Z,59.32
2022-08-26T17:33:57.519Z,58.99
2022-08-26T17:36:28.464Z,58.66
2022-08-26T17:38:58.178Z,58.73
2022-08-26T17:41:26.908Z,58.51
2022-08-26T17:43:55.263Z,58.07
2022-08-26T17:46:23.986Z,57.79
2022-08-26T17:48:52.449Z,57.54
2022-08-26T17:51:21.733Z,57.21
2022-08-26T17:53:51.263Z,57.22
2022-08-26T17:56:25.003Z,57.05
2022-08-26T17:58:56.829Z,56.55
2022-08-26T18:01:27.183Z,56.89
2022-08-26T18:04:00.285Z,56.38
2022-08-26T18:06:31.365Z,56.15
2022-08-26T18:09:00.928Z,55.45
2022-08-26T18:11:30.328Z,55.19
2022-08-26T18:13:59.683Z,54.79
2022-08-26T18:16:32.794Z,54.86
2022-08-26T18:19:01.925Z,55.23
2022-08-26T18:21:30.228Z,55.09
2022-08-26T18:23:58.633Z,54.88
2022-08-26T18:26:35.580Z,54.89
2022-08-26T18:29:04.304Z,54.63
2022-08-26T18:31:33.232Z,54.07
2022-08-26T18:34:02.843Z,53.63
2022-08-26T18:36:36.644Z,53.67
2022-08-26T18:39:06.960Z,53.05
2022-08-26T18:41:45.059Z,52.28
2022-08-26T18:44:15.313Z,51.99
2022-08-26T18:46:44.699Z,51.85
2022-08-26T18:49:17.462Z,51.69
2022-08-26T18:51:47.468Z,51.14
2022-08-26T18:54:15.790Z,50.62
2022-08-26T18:56:44.679Z,50.73
2022-08-26T18:59:14.462Z,50.37
2022-08-26T19:01:43.584Z,49.62
2022-08-26T19:04:14.774Z,49.73
2022-08-26T19:06:46.559Z,48.91
2022-08-26T19:09:17.858Z,48.77
2022-08-26T19:11:47.001Z,48.39
2022-08-26T19:14:18.738Z,48.44
2022-08-26T19:16:49.756Z,48.44
2022-08-26T19:19:18.419Z,47.76
2022-08-26T19:21:48.114Z,48.03
2022-08-26T19:24:18.516Z,47.70
2022-08-26T19:26:49.193Z,47.57
2022-08-26T19:29:21.143Z,46.46
2022-08-26T19:31:49.783Z,46.33
2022-08-26T19:34:20.803Z,46.06
2022-08-26T19:36:50.134Z,46.18
2022-08-26T19:39:18.439Z,45.88
2022-08-26T19:41:46.757Z,45.88
2022-08-26T19:44:37.794Z,45.39
2022-08-26T19:47:08.345Z,45.54
2022-08-26T19:49:37.299Z,44.74
2022-08-26T19:52:07.064Z,44.70
2022-08-26T19:54:37.139Z,44.22
2022-08-26T19:57:06.258Z,44.22
2022-08-26T19:59:37.139Z,44.26
2022-08-26T20:02:10.502Z,44.16
2022-08-26T20:04:40.271Z,43.82
2022-08-26T20:07:10.413Z,43.99
2022-08-26T20:09:39.946Z,43.65
2022-08-26T20:12:09.105Z,43.85
2022-08-26T20:14:37.939Z,43.23
2022-08-26T20:17:06.700Z,43.15
2022-08-26T20:19:54.243Z,43.60
2022-08-26T20:22:23.060Z,43.03
2022-08-26T20:24:51.611Z,43.37
2022-08-26T20:27:20.159Z,43.40
2022-08-26T20:29:48.503Z,43.24
2022-08-26T20:32:16.970Z,43.12
2022-08-26T20:34:45.288Z,42.78
2022-08-26T20:37:13.709Z,42.75
2022-08-26T20:39:42.349Z,42.24
2022-08-26T20:42:20.298Z,42.35
2022-08-26T20:44:54.243Z,42.43
2022-08-26T20:47:24.342Z,41.62
2022-08-26T20:49:53.444Z,41.60
2022-08-26T20:52:22.218Z,41.76
2022-08-26T20:54:50.668Z,42.30
2022-08-26T20:57:19.159Z,41.79
2022-08-26T20:59:48.283Z,41.35
2022-08-26T21:02:16.978Z,41.04
2022-08-26T21:04:45.299Z,40.87
2022-08-26T21:07:13.779Z,40.72
2022-08-26T21:09:42.325Z,40.90
2022-08-26T21:12:10.623Z,40.63
2022-08-26T21:14:38.993Z,40.13
2022-08-26T21:17:07.378Z,40.07
2022-08-26T21:19:35.787Z,40.09
2022-08-26T21:22:04.013Z,39.57
2022-08-26T21:24:33.198Z,39.65
2022-08-26T21:27:01.538Z,39.56
2022-08-26T21:29:29.943Z,39.50
2022-08-26T21:31:58.717Z,39.27
2022-08-26T21:34:27.698Z,38.89
2022-08-26T21:36:56.003Z,38.63
2022-08-26T21:39:24.454Z,38.57
2022-08-26T21:41:52.738Z,37.76
2022-08-26T21:44:20.983Z,37.73
2022-08-26T21:46:50.106Z,37.86
2022-08-26T21:49:18.745Z,37.89
2022-08-26T21:51:49.478Z,37.86
2022-08-26T21:54:19.309Z,37.39
2022-08-26T21:56:48.662Z,37.50
2022-08-26T21:59:19.318Z,37.01
2022-08-26T22:01:48.547Z,36.69
2022-08-26T22:04:17.618Z,36.78
2022-08-26T22:06:50.952Z,35.88
2022-08-26T22:09:22.498Z,36.19
2022-08-26T22:11:52.282Z,36.72
2022-08-26T22:14:30.617Z,36.48
2022-08-26T22:17:00.720Z,36.37
2022-08-26T22:19:29.239Z,35.95
2022-08-26T22:21:58.034Z,36.05
2022-08-26T22:24:28.342Z,35.74
2022-08-26T22:26:57.223Z,36.13
2022-08-26T22:29:26.643Z,36.17
2022-08-26T22:31:55.815Z,36.17
2022-08-26T22:34:24.143Z,35.94
2022-08-26T22:36:52.980Z,36.14
2022-08-26T22:39:25.278Z,36.35
2022-08-26T22:41:55.459Z,36.41
2022-08-26T22:44:24.344Z,36.36
2022-08-26T22:46:55.069Z,36.56
2022-08-26T22:49:24.364Z,36.38
2022-08-26T22:51:52.763Z,37.19
2022-08-26T22:54:21.403Z,37.41
2022-08-26T22:56:49.783Z,37.36
2022-08-26T22:59:18.264Z,37.08
2022-08-26T23:01:48.344Z,37.53
2022-08-26T23:04:16.800Z,37.75
2022-08-26T23:06:47.693Z,38.05
2022-08-26T23:09:18.995Z,38.37
2022-08-26T23:11:49.467Z,38.72
2022-08-26T23:14:19.223Z,39.16
2022-08-26T23:16:48.325Z,39.23
2022-08-26T23:19:19.243Z,39.76
2022-08-26T23:21:48.119Z,39.59
2022-08-26T23:24:18.239Z,40.02
2022-08-26T23:26:47.363Z,40.14
2022-08-26T23:29:16.503Z,40.81
2022-08-26T23:31:45.561Z,41.14
2022-08-26T23:34:32.628Z,40.94
2022-08-26T23:37:01.689Z,41.23
2022-08-26T23:39:32.823Z,41.25
2022-08-26T23:42:02.583Z,41.38
2022-08-26T23:44:32.008Z,41.92
2022-08-26T23:47:00.811Z,41.76
2022-08-26T23:49:29.297Z,41.88
2022-08-26T23:52:16.324Z,42.08
2022-08-26T23:54:45.145Z,42.21
2022-08-26T23:57:13.554Z,42.79
2022-08-26T23:59:42.447Z,42.84
